La Valley, Colorado
Current Conditions -  °F | °C
As of 7:45 AM on Friday 28 Nov 2014 (Local Time) from KVTP Reporting Station
Clear Clear  
Wind Chill: 19°   Ceiling: Unl
Heat Index: 30°   Visibility: 10mi
Dew Point: 10°   Wind: 15mph
Humidity: 44%   Direction: 200°SSW
Pressure: 30.22"   Gusts: 26mph
Location:  37.1568°N, 105.289°W
Report Text: KVTP 281445Z AUTO 20013G23KT 180V250 10SM CLR M01/M12 A3022 RMK AO2
Loading
Personal Weather Stations






























Interactive Weather Map New forecast layout! Learn more

10-Day Weather Forecast

Advertisements
Track Severe Weather on mobile